»·PEaware :: UPS1849 KSAN-KRNO

UPS1849 :: KSAN-KRNO

FLIGHT INFORMATION

Flight Status: Arrived
Operator:
United Parcel Service
More flights by this operator :: More flights under this callsign
Pilot: Will K. (13011)
Aircraft: BOEING 747-400 (WINGLETS)
(B744)
More flights by this aircraft type
Origin: KSAN San Diego Intl-Lindbergh
United States
Destination: KRNO Reno/Tahoe Intl
United States
More flights between these airports :: More routes between these airports
Route: +PADRZ2 EHF FMG
File this flight plan on PilotEdge
Remarks:
Altitude:
(Current/Filed)
34,000ft
Speed:
(Current/Filed)
350kts
Departed: 14-May-18 04:42 PM
Arrived: 14-May-18 05:58 PM
Distance/Time
Traveled:
425nm/1:16
Distance/Time
To Go:
Arrived

Flight Plot

Page will automatically refresh every two minutes.

Flight plan parsing failed; only flown route is shown


Map Options




Map Legend


Flown Route
Filed Route
Departure Airport
Arrival Airport
Navaid (VOR, NDB)
Fix

Horizontal Profiles

Position Reports

Time Latitude Longitude Heading Altitude Ground
Speed
14-May-18 16:00 32.736646 -117.185036 354 28ft 0kts
14-May-18 16:01 32.736646 -117.185036 354 28ft 0kts
14-May-18 16:02 32.736646 -117.185036 354 28ft 0kts
14-May-18 16:03 32.736646 -117.185036 354 28ft 0kts
14-May-18 16:04 32.736646 -117.185036 354 28ft 0kts
14-May-18 16:05 32.736646 -117.185036 354 28ft 0kts
14-May-18 16:06 32.736646 -117.185036 354 28ft 0kts
14-May-18 16:07 32.736646 -117.185036 354 28ft 0kts
14-May-18 16:08 32.736646 -117.185036 354 28ft 0kts
14-May-18 16:09 32.736646 -117.185036 354 28ft 0kts
14-May-18 16:10 32.736646 -117.185036 354 28ft 0kts
14-May-18 16:11 32.736646 -117.185036 354 28ft 0kts
14-May-18 16:12 32.736646 -117.185036 354 28ft 0kts
14-May-18 16:13 32.736646 -117.185036 354 28ft 0kts
14-May-18 16:14 32.736646 -117.185036 354 28ft 0kts
14-May-18 16:15 32.736646 -117.185036 354 28ft 0kts
14-May-18 16:16 32.736646 -117.185036 354 28ft 0kts
14-May-18 16:17 32.736646 -117.185036 354 28ft 0kts
14-May-18 16:18 32.736646 -117.185036 354 28ft 0kts
14-May-18 16:19 32.736646 -117.185036 354 28ft 0kts
14-May-18 16:20 32.736646 -117.185036 354 28ft 0kts
14-May-18 16:21 32.736646 -117.185036 354 28ft 0kts
14-May-18 16:22 32.736646 -117.185036 354 28ft 0kts
14-May-18 16:23 32.736327 -117.185035 16 28ft 2kts
14-May-18 16:24 32.736069 -117.185295 136 28ft 2kts
14-May-18 16:25 32.736211 -117.185428 144 28ft 1kts
14-May-18 16:26 32.736211 -117.185428 144 28ft 0kts
14-May-18 16:27 32.736211 -117.185428 144 28ft 0kts
14-May-18 16:28 32.736211 -117.185428 144 28ft 0kts
14-May-18 16:29 32.736211 -117.185428 144 28ft 0kts
14-May-18 16:30 32.736211 -117.185428 144 28ft 0kts
14-May-18 16:31 32.736211 -117.185428 144 28ft 0kts
14-May-18 16:32 32.736211 -117.185428 144 28ft 0kts
14-May-18 16:33 32.736211 -117.185428 144 28ft 0kts
14-May-18 16:34 32.736211 -117.185428 144 28ft 0kts
14-May-18 16:35 32.734619 -117.184115 154 28ft 14kts
14-May-18 16:36 32.732544 -117.180697 105 28ft 26kts
14-May-18 16:37 32.731414 -117.176136 116 28ft 0kts
14-May-18 16:38 32.731414 -117.176135 116 28ft 0kts
14-May-18 16:39 32.731414 -117.176134 116 28ft 0kts
14-May-18 16:40 32.731413 -117.176134 116 28ft 0kts
14-May-18 16:41 32.730281 -117.176186 287 28ft 0kts
14-May-18 16:42 32.736336 -117.200929 286 422ft 172kts
14-May-18 16:43 32.758823 -117.256460 306 2733ft 218kts
14-May-18 16:44 32.801415 -117.321162 306 4775ft 264kts
14-May-18 16:45 32.847730 -117.392757 306 7628ft 280kts
14-May-18 16:46 32.895663 -117.467332 305 10517ft 286kts
14-May-18 16:47 32.944861 -117.543737 304 13200ft 296kts
14-May-18 16:48 32.995661 -117.623006 303 15886ft 305kts
14-May-18 16:49 33.048296 -117.705426 303 18472ft 318kts
14-May-18 16:50 33.113611 -117.780728 316 20818ft 336kts
14-May-18 16:51 33.186438 -117.854312 314 22967ft 350kts
14-May-18 16:52 33.268883 -117.935160 316 23415ft 420kts
14-May-18 16:53 33.365425 -118.029189 317 24548ft 466kts
14-May-18 16:54 33.467132 -118.128980 317 26660ft 481kts
14-May-18 16:55 33.560514 -118.220601 319 28426ft 490kts
14-May-18 16:56 33.670937 -118.288727 332 30535ft 491kts
14-May-18 16:57 33.785445 -118.350859 333 32210ft 489kts
14-May-18 16:58 33.906644 -118.411475 333 33797ft 486kts
14-May-18 16:59 34.027016 -118.463519 345 34043ft 490kts
14-May-18 17:00 34.160559 -118.484646 349 34016ft 493kts
14-May-18 17:01 34.296617 -118.505165 349 34001ft 493kts
14-May-18 17:02 34.432908 -118.526112 349 34034ft 492kts
14-May-18 17:03 34.568561 -118.547111 349 34036ft 491kts
14-May-18 17:04 34.703812 -118.568113 349 34053ft 491kts
14-May-18 17:05 34.828912 -118.587601 349 34059ft 490kts
14-May-18 17:06 34.963844 -118.608751 349 34044ft 489kts
14-May-18 17:07 35.080846 -118.683975 318 34034ft 474kts
14-May-18 17:08 35.178998 -118.785196 316 34001ft 472kts
14-May-18 17:09 35.279713 -118.887457 317 33955ft 472kts
14-May-18 17:10 35.380679 -118.990627 317 33925ft 472kts
14-May-18 17:11 35.485545 -119.086190 337 33929ft 476kts
14-May-18 17:12 35.617170 -119.115772 351 33922ft 485kts
14-May-18 17:13 35.751928 -119.132649 350 33921ft 485kts
14-May-18 17:14 35.885870 -119.150139 350 33927ft 484kts
14-May-18 17:15 36.019253 -119.167736 350 33938ft 484kts
14-May-18 17:16 36.151024 -119.185234 350 33936ft 478kts
14-May-18 17:17 36.283013 -119.202829 350 33933ft 478kts
14-May-18 17:18 36.414399 -119.220403 350 33934ft 477kts
14-May-18 17:19 36.547804 -119.238310 350 33938ft 477kts
14-May-18 17:20 36.679401 -119.256035 350 33944ft 476kts
14-May-18 17:21 36.811060 -119.273829 350 33953ft 474kts
14-May-18 17:22 36.941901 -119.291574 350 33962ft 473kts
14-May-18 17:23 37.072210 -119.309303 350 33982ft 471kts
14-May-18 17:24 37.200457 -119.326818 350 33592ft 445kts
14-May-18 17:25 37.317129 -119.342803 350 32521ft 410kts
14-May-18 17:26 37.429093 -119.358186 349 30604ft 397kts
14-May-18 17:27 37.537252 -119.373100 349 28681ft 386kts
14-May-18 17:28 37.642639 -119.387674 350 26726ft 377kts
14-May-18 17:29 37.746108 -119.402022 350 24756ft 369kts
14-May-18 17:30 37.846830 -119.416016 351 24120ft 366kts
14-May-18 17:31 37.948965 -119.430229 351 24087ft 367kts
14-May-18 17:32 38.050083 -119.444461 352 24077ft 365kts
14-May-18 17:33 38.150748 -119.458488 352 24086ft 364kts
14-May-18 17:34 38.251761 -119.472687 352 24010ft 363kts
14-May-18 17:35 38.346467 -119.485894 353 22382ft 356kts
14-May-18 17:36 38.446092 -119.500077 352 20378ft 353kts
14-May-18 17:37 38.543071 -119.513888 353 18786ft 337kts
14-May-18 17:38 38.634437 -119.526843 354 17174ft 326kts
14-May-18 17:39 38.725320 -119.539757 354 15291ft 327kts
14-May-18 17:40 38.813081 -119.552389 354 15013ft 310kts
14-May-18 17:41 38.901248 -119.564954 354 15022ft 320kts
14-May-18 17:42 38.988994 -119.577554 354 15194ft 325kts
14-May-18 17:43 39.084088 -119.591229 354 15033ft 354kts
14-May-18 17:44 39.183616 -119.605611 354 15019ft 362kts
14-May-18 17:45 39.283938 -119.620288 352 14133ft 359kts
14-May-18 17:46 39.381305 -119.633512 2 12739ft 339kts
14-May-18 17:47 39.473607 -119.628914 3 11750ft 336kts
14-May-18 17:48 39.558651 -119.624030 3 10600ft 290kts
14-May-18 17:49 39.636450 -119.619628 3 9585ft 265kts
14-May-18 17:50 39.709583 -119.617312 350 9185ft 264kts
14-May-18 17:51 39.748850 -119.682877 277 9203ft 231kts
14-May-18 17:52 39.726066 -119.752619 226 9003ft 204kts
14-May-18 17:53 39.675958 -119.768971 181 7740ft 184kts
14-May-18 17:54 39.626104 -119.768936 179 6690ft 174kts
14-May-18 17:55 39.576648 -119.769080 177 5686ft 173kts
14-May-18 17:56 39.529867 -119.769360 176 4782ft 167kts
14-May-18 17:57 39.495346 -119.769189 178 4428ft 45kts
14-May-18 17:58 39.492676 -119.771268 308 4428ft 10kts
14-May-18 17:59 39.498876 -119.771496 0 4428ft 25kts
14-May-18 18:00 39.505504 -119.771480 358 4428ft 24kts
14-May-18 18:01 39.509098 -119.773218 269 4428ft 10kts
14-May-18 18:02 39.509527 -119.774649 320 4428ft 0kts
14-May-18 18:03 39.509527 -119.774650 320 4428ft 0kts
14-May-18 18:04 39.509528 -119.774651 320 4428ft 0kts
14-May-18 18:05 39.509529 -119.774651 320 4428ft 0kts

Navigation Log

Ident Type
Flight plan parsing failed, navigation log unavailable